Time;durP1;ratioP1;P1;durP2;ratioP2;P2;SDS_P1;SDS_P2;PMS_P1;PMS_P2;Temp;Humidity;BMP_temperature;BMP_pressure;BME280_temperature;BME280_humidity;BME280_pressure;Samples;Min_cycle;Max_cycle;Signal;HPM_P1;HPM_P2
2023/03/16 00:01:06;;;;;;;0.30;0.30;;;;;;;10.26;100.00;99085.94;4964037;28;20038;-83
2023/03/16 00:03:32;;;;;;;0.40;0.40;;;;;;;10.23;100.00;99082.84;4979583;28;20502;-83
2023/03/16 00:05:58;;;;;;;0.40;0.40;;;;;;;10.23;100.00;99080.16;4995641;28;20041;-84
2023/03/16 00:08:23;;;;;;;0.30;0.30;;;;;;;10.26;100.00;99080.56;4995853;28;20034;-83
2023/03/16 00:10:52;;;;;;;0.50;0.50;;;;;;;10.24;100.00;99073.75;4995473;28;20058;-84
2023/03/16 00:13:22;;;;;;;0.40;0.40;;;;;;;10.26;100.00;99075.19;4995627;28;20038;-83
2023/03/16 00:15:52;;;;;;;0.40;0.40;;;;;;;10.26;100.00;99052.88;4963614;28;20043;-84
2023/03/16 00:18:17;;;;;;;0.40;0.40;;;;;;;10.22;100.00;99059.72;4995501;28;20076;-85
2023/03/16 00:20:43;;;;;;;0.40;0.40;;;;;;;10.26;100.00;99063.63;4979655;28;20038;-85
2023/03/16 00:23:09;;;;;;;0.40;0.40;;;;;;;10.26;100.00;99064.44;4979251;28;20038;-83
2023/03/16 00:25:34;;;;;;;0.40;0.40;;;;;;;10.25;100.00;99045.88;4995600;28;20026;-84
2023/03/16 00:28:02;;;;;;;0.47;0.47;;;;;;;10.27;100.00;99054.53;4994944;28;20041;-84
2023/03/16 00:30:31;;;;;;;0.30;0.30;;;;;;;10.28;100.00;99037.41;4994927;28;20041;-84
2023/03/16 00:32:57;;;;;;;0.40;0.40;;;;;;;10.31;100.00;99042.34;4995542;28;20027;-83
2023/03/16 00:35:24;;;;;;;0.40;0.40;;;;;;;10.34;100.00;99039.22;4979174;28;20030;-85
2023/03/16 00:37:49;;;;;;;0.40;0.40;;;;;;;10.32;100.00;99031.38;4979190;28;20105;-84
2023/03/16 00:40:15;;;;;;;0.40;0.40;;;;;;;10.31;100.00;99029.72;4995104;28;20495;-85
2023/03/16 00:42:41;;;;;;;0.40;0.40;;;;;;;10.26;100.00;99029.50;4995117;28;20034;-84
2023/03/16 00:45:08;;;;;;;0.40;0.40;;;;;;;10.32;100.00;99027.88;4979164;28;20057;-84
2023/03/16 00:47:34;;;;;;;0.40;0.40;;;;;;;10.27;100.00;99027.69;4962867;28;20043;-87
2023/03/16 00:50:01;;;;;;;0.40;0.40;;;;;;;10.32;100.00;99026.00;4994699;28;20484;-84
2023/03/16 00:52:27;;;;;;;0.40;0.40;;;;;;;10.31;100.00;99007.41;4962838;28;20495;-84
2023/03/16 00:54:54;;;;;;;0.40;0.40;;;;;;;10.28;100.00;98997.09;4962708;28;20092;-84
2023/03/16 00:57:23;;;;;;;0.40;0.40;;;;;;;10.24;100.00;98994.00;4962802;28;20036;-83
2023/03/16 00:59:51;;;;;;;0.50;0.50;;;;;;;10.15;100.00;98981.88;4963052;28;20038;-84
2023/03/16 01:02:18;;;;;;;0.43;0.43;;;;;;;10.17;100.00;99003.16;4995163;28;20076;-83
2023/03/16 01:04:44;;;;;;;0.35;0.35;;;;;;;10.15;100.00;99000.66;4978807;28;20114;-83
2023/03/16 01:07:12;;;;;;;0.40;0.40;;;;;;;10.17;100.00;98998.59;4994924;28;20125;-83
2023/03/16 01:09:39;;;;;;;0.40;0.40;;;;;;;10.16;100.00;98993.44;4962088;28;20061;-83
2023/03/16 01:12:09;;;;;;;0.40;0.40;;;;;;;10.21;100.00;99001.66;4994807;28;20030;-83
2023/03/16 01:14:35;;;;;;;0.40;0.40;;;;;;;10.18;100.00;98976.06;4962505;28;20096;-85
2023/03/16 01:17:02;;;;;;;0.40;0.40;;;;;;;10.23;100.00;98996.91;4978046;28;20030;-86
2023/03/16 01:19:28;;;;;;;0.40;0.40;;;;;;;10.20;100.00;98990.09;4978210;28;20038;-85
2023/03/16 01:21:53;;;;;;;0.40;0.40;;;;;;;10.24;100.00;98995.84;4978175;28;20454;-86
2023/03/16 01:24:19;;;;;;;0.40;0.40;;;;;;;10.26;100.00;98999.16;4962042;28;20050;-84
2023/03/16 01:26:45;;;;;;;0.40;0.40;;;;;;;10.21;100.00;98989.03;4946366;28;20413;-85
2023/03/16 01:29:13;;;;;;;0.40;0.40;;;;;;;10.22;100.00;99000.63;4978447;28;20081;-87
2023/03/16 01:31:39;;;;;;;0.30;0.30;;;;;;;10.19;100.00;98993.84;4978174;28;20048;-85
2023/03/16 01:34:05;;;;;;;0.30;0.30;;;;;;;10.13;100.00;98982.09;4978233;28;20042;-86
2023/03/16 01:36:33;;;;;;;0.40;0.40;;;;;;;10.18;100.00;98977.94;4994111;28;20026;-83
2023/03/16 01:38:59;;;;;;;0.40;0.40;;;;;;;10.23;100.00;98989.66;4961578;28;20041;-86
2023/03/16 01:41:26;;;;;;;0.40;0.40;;;;;;;10.18;100.00;98972.56;4946070;28;20121;-86
2023/03/16 01:43:52;;;;;;;0.38;0.38;;;;;;;10.23;100.00;98976.22;4945736;28;20081;-86
2023/03/16 01:46:28;;;;;;;0.40;0.40;;;;;;;10.22;100.00;98966.53;4977668;28;20035;-84
2023/03/16 01:49:13;;;;;;;0.40;0.40;;;;;;;10.24;100.00;98963.63;4993563;28;20034;-84
2023/03/16 01:51:42;;;;;;;0.40;0.40;;;;;;;10.25;100.00;98960.72;4977650;28;20033;-84
2023/03/16 01:54:36;;;;;;;0.40;0.40;;;;;;;10.25;100.00;98952.66;4977937;28;20079;-84
2023/03/16 01:57:07;;;;;;;0.40;0.40;;;;;;;10.25;100.00;98944.59;4961532;28;20038;-84
2023/03/16 01:59:38;;;;;;;0.40;0.40;;;;;;;10.25;100.00;98943.78;4961730;28;20030;-84
2023/03/16 02:02:04;;;;;;;0.40;0.40;;;;;;;10.23;100.00;98935.94;4961566;28;20485;-86
2023/03/16 02:04:39;;;;;;;0.40;0.40;;;;;;;10.22;100.00;98936.19;4961255;28;20053;-85
2023/03/16 02:07:06;;;;;;;0.40;0.40;;;;;;;10.21;100.00;98931.81;4977633;28;20037;-86
2023/03/16 02:09:32;;;;;;;0.40;0.40;;;;;;;10.20;100.00;98922.13;4977053;28;20035;-85
2023/03/16 02:11:58;;;;;;;0.40;0.40;;;;;;;10.15;100.00;98911.22;4993329;28;20028;-85
2023/03/16 02:14:24;;;;;;;0.40;0.40;;;;;;;10.16;100.00;98919.06;4993551;28;20030;-86
2023/03/16 02:16:50;;;;;;;0.30;0.30;;;;;;;10.18;100.00;98918.84;4977437;28;20442;-83
2023/03/16 02:19:36;;;;;;;0.50;0.50;;;;;;;10.06;100.00;98889.19;4993432;28;20382;-84
2023/03/16 02:22:05;;;;;;;0.47;0.47;;;;;;;10.21;100.00;98915.72;4977211;28;20512;-86
2023/03/16 02:24:31;;;;;;;0.40;0.40;;;;;;;10.18;100.00;98911.59;4960956;28;20464;-85
2023/03/16 02:26:57;;;;;;;0.40;0.40;;;;;;;10.24;100.00;98917.97;4977390;28;20041;-85
2023/03/16 02:29:40;;;;;;;0.40;0.40;;;;;;;10.27;100.00;98898.75;4961183;28;20062;-83
2023/03/16 02:32:10;;;;;;;0.40;0.40;;;;;;;10.23;100.00;98881.41;4993303;28;20026;-84
2023/03/16 02:34:35;;;;;;;0.40;0.40;;;;;;;10.26;100.00;98884.47;4977039;28;20385;-85
2023/03/16 02:37:02;;;;;;;0.40;0.40;;;;;;;10.28;100.00;98873.53;4992586;28;20030;-82
2023/03/16 02:39:28;;;;;;;0.40;0.40;;;;;;;10.19;100.00;98864.06;4993363;28;20177;-83
2023/03/16 02:41:53;;;;;;;0.40;0.40;;;;;;;10.37;100.00;98888.31;4977020;28;20532;-83
2023/03/16 02:44:19;;;;;;;0.40;0.40;;;;;;;10.41;100.00;98886.84;4993704;28;20026;-82
2023/03/16 02:46:45;;;;;;;0.70;0.70;;;;;;;10.38;100.00;98884.63;4993194;28;20037;-84
2023/03/16 02:49:16;;;;;;;0.40;0.40;;;;;;;10.17;100.00;98856.25;4960617;28;20061;-84
2023/03/16 02:51:44;;;;;;;0.40;0.40;;;;;;;10.24;100.00;98864.25;4960648;28;20396;-82
2023/03/16 02:54:10;;;;;;;0.40;0.40;;;;;;;10.28;100.00;98868.16;4945137;28;20030;-84
2023/03/16 02:56:36;;;;;;;0.40;0.40;;;;;;;10.26;100.00;98872.91;4992591;28;20496;-85
2023/03/16 02:59:01;;;;;;;0.40;0.40;;;;;;;10.21;100.00;98865.50;4976585;28;20026;-84
2023/03/16 03:01:28;;;;;;;0.40;0.40;;;;;;;10.25;100.00;98861.34;4992738;28;20066;-83
2023/03/16 03:03:54;;;;;;;0.40;0.40;;;;;;;10.25;100.00;98861.34;4976585;28;20478;-84
2023/03/16 03:06:20;;;;;;;0.40;0.40;;;;;;;10.23;100.00;98854.53;4993952;28;20062;-85
2023/03/16 03:08:45;;;;;;;0.40;0.40;;;;;;;10.24;100.00;98851.66;4992767;28;20035;-82
2023/03/16 03:11:11;;;;;;;0.43;0.43;;;;;;;10.25;100.00;98849.78;4992566;28;20077;-85
2023/03/16 03:13:38;;;;;;;0.40;0.40;;;;;;;10.24;100.00;98848.97;4976551;28;20041;-84
2023/03/16 03:16:04;;;;;;;0.40;0.40;;;;;;;10.22;100.00;98828.75;4977100;28;20041;-86
2023/03/16 03:18:30;;;;;;;0.40;0.40;;;;;;;10.18;100.00;98824.84;4992218;28;20030;-85
2023/03/16 03:20:58;;;;;;;0.40;0.40;;;;;;;10.25;100.00;98830.97;4976830;28;20061;-83
2023/03/16 03:23:24;;;;;;;0.40;0.40;;;;;;;10.32;100.00;98837.97;4976844;28;20089;-84
2023/03/16 03:25:49;;;;;;;0.32;0.32;;;;;;;10.32;100.00;98832.59;4992202;28;20038;-84
2023/03/16 03:28:15;;;;;;;0.32;0.32;;;;;;;10.33;100.00;98828.03;4977628;28;20034;-83
2023/03/16 03:30:41;;;;;;;0.40;0.40;;;;;;;10.30;100.00;98817.75;4979427;28;20027;-85
2023/03/16 03:33:06;;;;;;;0.40;0.40;;;;;;;10.28;100.00;98803.69;4995332;28;20057;-84
2023/03/16 03:35:32;;;;;;;0.40;0.40;;;;;;;10.34;100.00;98819.75;4994076;28;20110;-84
2023/03/16 03:37:58;;;;;;;0.40;0.40;;;;;;;10.33;100.00;98807.38;4993574;28;20033;-86
2023/03/16 03:40:23;;;;;;;0.50;0.50;;;;;;;10.31;100.00;98805.94;4993986;28;20429;-85
2023/03/16 03:42:50;;;;;;;0.40;0.40;;;;;;;10.31;100.00;98819.38;4976295;28;20142;-84
2023/03/16 03:45:16;;;;;;;0.40;0.40;;;;;;;10.31;100.00;98798.69;4992641;28;20026;-84
2023/03/16 03:47:42;;;;;;;0.47;0.47;;;;;;;10.36;100.00;98803.41;4976642;28;20461;-85
2023/03/16 03:50:09;;;;;;;0.40;0.40;;;;;;;10.37;100.00;98804.22;4991900;28;20404;-84
2023/03/16 03:52:35;;;;;;;0.40;0.40;;;;;;;10.31;100.00;98795.19;4976434;28;20045;-85
2023/03/16 03:55:00;;;;;;;0.40;0.40;;;;;;;10.28;100.00;98792.97;4960191;28;20392;-83
2023/03/16 03:57:26;;;;;;;0.40;0.40;;;;;;;10.15;100.00;98782.31;4960152;28;20107;-84
2023/03/16 03:59:54;;;;;;;0.40;0.40;;;;;;;10.22;100.00;98780.41;4976281;28;20037;-84
2023/03/16 04:02:19;;;;;;;0.40;0.40;;;;;;;10.19;100.00;98778.13;4978515;28;20042;-85
2023/03/16 04:04:45;;;;;;;0.40;0.40;;;;;;;10.17;100.00;98782.94;4995811;28;20061;-84
2023/03/16 04:07:11;;;;;;;0.50;0.50;;;;;;;10.16;100.00;98768.69;4995961;28;20028;-87
2023/03/16 04:09:36;;;;;;;0.40;0.40;;;;;;;10.13;100.00;98774.47;4979570;28;20045;-85
2023/03/16 04:12:03;;;;;;;0.50;0.50;;;;;;;10.09;100.00;98775.97;4979471;28;20073;-86
2023/03/16 04:14:30;;;;;;;0.40;0.40;;;;;;;9.96;100.00;98755.44;4979645;28;20037;-85
2023/03/16 04:16:55;;;;;;;0.40;0.40;;;;;;;10.04;100.00;98775.81;4947088;28;20395;-85
2023/03/16 04:19:22;;;;;;;0.40;0.40;;;;;;;10.01;100.00;98763.66;4995805;28;20042;-87
2023/03/16 04:21:49;;;;;;;0.43;0.43;;;;;;;9.93;100.00;98749.69;4947714;28;20042;-85
2023/03/16 04:24:14;;;;;;;2.95;0.93;;;;;;;9.95;100.00;98748.44;4963062;28;20540;-85
2023/03/16 04:26:43;;;;;;;0.50;0.50;;;;;;;9.93;100.00;98752.38;4995356;28;20062;-85
2023/03/16 04:29:13;;;;;;;0.40;0.40;;;;;;;9.90;100.00;98748.28;4979796;28;20485;-85
2023/03/16 04:31:41;;;;;;;0.50;0.50;;;;;;;9.91;100.00;98741.84;4963387;28;20034;-85
2023/03/16 04:34:07;;;;;;;0.40;0.40;;;;;;;9.86;100.00;98736.31;4995269;28;20030;-84
2023/03/16 04:36:33;;;;;;;0.47;0.47;;;;;;;9.85;100.00;98735.50;4979258;28;20033;-85
2023/03/16 04:38:58;;;;;;;0.40;0.40;;;;;;;9.87;100.00;98754.06;4978887;28;20428;-86
2023/03/16 04:41:24;;;;;;;0.40;0.40;;;;;;;9.79;100.00;98730.19;4979053;28;20404;-86
2023/03/16 04:43:50;;;;;;;0.50;0.50;;;;;;;9.89;100.00;98750.09;4995274;28;20042;-87
2023/03/16 04:46:16;;;;;;;0.40;0.40;;;;;;;9.87;100.00;98728.06;4978840;28;20393;-84
2023/03/16 04:48:41;;;;;;;0.55;0.40;;;;;;;9.96;100.00;98750.06;4979047;28;20038;-85
2023/03/16 04:51:07;;;;;;;0.50;0.50;;;;;;;10.00;100.00;98750.44;4994587;28;20508;-84
2023/03/16 04:53:33;;;;;;;0.40;0.40;;;;;;;10.01;100.00;98734.13;4994812;28;20060;-84
2023/03/16 04:55:58;;;;;;;0.40;0.40;;;;;;;10.02;100.00;98748.34;4978880;28;20126;-85
2023/03/16 04:58:24;;;;;;;0.38;0.38;;;;;;;10.01;100.00;98739.47;4978733;28;20074;-84
2023/03/16 05:00:54;;;;;;;0.40;0.40;;;;;;;10.03;100.00;98726.66;4994764;28;20404;-84
2023/03/16 05:03:20;;;;;;;0.40;0.40;;;;;;;10.05;100.00;98735.28;4994961;28;20033;-84
2023/03/16 05:05:46;;;;;;;0.40;0.40;;;;;;;10.12;100.00;98744.13;4962302;28;20049;-86
2023/03/16 05:08:12;;;;;;;0.47;0.47;;;;;;;10.13;100.00;98736.88;4994520;28;20466;-84
2023/03/16 05:10:38;;;;;;;0.60;0.60;;;;;;;10.15;100.00;98723.25;4978321;28;20030;-85
2023/03/16 05:13:06;;;;;;;1.38;1.27;;;;;;;10.12;100.00;98730.69;4994391;28;20030;-84
2023/03/16 05:15:32;;;;;;;1.55;0.52;;;;;;;10.06;100.00;98709.28;4995053;28;20030;-85
2023/03/16 05:17:58;;;;;;;0.50;0.50;;;;;;;10.04;100.00;98722.09;4978242;28;20038;-84
2023/03/16 05:20:24;;;;;;;0.50;0.50;;;;;;;9.98;100.00;98721.13;4994701;28;20439;-84
2023/03/16 05:22:50;;;;;;;0.40;0.40;;;;;;;9.98;100.00;98707.72;4994222;28;20026;-86
2023/03/16 05:25:16;;;;;;;0.50;0.50;;;;;;;9.99;100.00;98706.66;4977837;28;20404;-85
2023/03/16 05:27:48;;;;;;;0.45;0.45;;;;;;;9.97;100.00;98702.56;4995651;28;20062;-85
2023/03/16 05:30:17;;;;;;;0.50;0.50;;;;;;;9.92;100.00;98689.78;4962117;28;20041;-85
2023/03/16 05:32:44;;;;;;;0.40;0.40;;;;;;;9.79;100.00;98681.88;4993982;28;20477;-85
2023/03/16 05:35:12;;;;;;;0.40;0.40;;;;;;;9.90;100.00;98716.88;4994452;28;20081;-87
2023/03/16 05:37:39;;;;;;;0.50;0.50;;;;;;;9.89;100.00;98706.34;4978417;28;20057;-85
2023/03/16 05:40:16;;;;;;;0.30;0.30;;;;;;;9.90;100.00;98705.31;4993672;28;20461;-85
2023/03/16 05:42:43;;;;;;;0.43;0.43;;;;;;;9.84;100.00;98708.88;4963010;28;20034;-84
2023/03/16 05:45:10;;;;;;;0.40;0.40;;;;;;;9.85;100.00;98707.84;4977989;28;20058;-84
2023/03/16 05:47:56;;;;;;;0.40;0.40;;;;;;;9.84;100.00;98714.22;4977856;28;20034;-86
2023/03/16 05:50:21;;;;;;;2.05;0.50;;;;;;;9.54;100.00;98682.72;4993325;28;20041;-84
2023/03/16 05:52:47;;;;;;;0.95;0.63;;;;;;;9.70;100.00;98705.50;4994654;28;20034;-85
2023/03/16 05:55:14;;;;;;;0.40;0.40;;;;;;;9.53;100.00;98677.59;4977821;28;20389;-84
2023/03/16 05:57:40;;;;;;;0.40;0.40;;;;;;;9.67;100.00;98701.38;4977409;28;20026;-83
2023/03/16 06:00:13;;;;;;;0.47;0.47;;;;;;;9.69;100.00;98706.53;4977410;28;20041;-86
2023/03/16 06:02:41;;;;;;;0.38;0.38;;;;;;;9.63;100.00;98705.56;4993915;28;20176;-84
2023/03/16 06:05:07;;;;;;;0.40;0.40;;;;;;;9.48;100.00;98696.22;4961069;28;20030;-84
2023/03/16 06:07:33;;;;;;;0.50;0.50;;;;;;;9.43;100.00;98696.84;4961303;28;20120;-83
2023/03/16 06:09:59;;;;;;;0.50;0.50;;;;;;;9.38;100.00;98699.38;4960759;28;20125;-85
2023/03/16 06:12:24;;;;;;;0.40;0.40;;;;;;;9.35;100.00;98699.81;4977288;28;20544;-84
2023/03/16 06:14:50;;;;;;;0.50;0.50;;;;;;;9.34;100.00;98695.47;4993458;28;20496;-84
2023/03/16 06:17:16;;;;;;;0.40;0.40;;;;;;;9.40;100.00;98700.78;4993084;28;20037;-84
2023/03/16 06:19:41;;;;;;;0.40;0.40;;;;;;;9.42;100.00;98712.13;4977383;28;20124;-84
2023/03/16 06:22:07;;;;;;;0.40;0.40;;;;;;;9.45;100.00;98702.84;4993588;28;20066;-86
2023/03/16 06:24:33;;;;;;;0.50;0.50;;;;;;;9.48;100.00;98697.03;4976409;28;20057;-85
2023/03/16 06:26:59;;;;;;;0.40;0.40;;;;;;;9.63;100.00;98696.66;4977207;28;20469;-84
2023/03/16 06:29:24;;;;;;;0.40;0.40;;;;;;;9.78;100.00;98707.88;4993051;28;20460;-86
2023/03/16 06:31:51;;;;;;;0.50;0.50;;;;;;;9.83;100.00;98704.56;4961043;28;20045;-86
2023/03/16 06:34:17;;;;;;;0.50;0.50;;;;;;;9.88;100.00;98696.66;4994223;28;20057;-85
2023/03/16 06:36:43;;;;;;;0.40;0.40;;;;;;;9.88;100.00;98696.66;4960874;28;20039;-85
2023/03/16 06:39:08;;;;;;;0.40;0.40;;;;;;;9.97;100.00;98695.31;4976658;28;20096;-85
2023/03/16 06:41:34;;;;;;;0.40;0.40;;;;;;;10.05;100.00;98702.25;4976925;28;20034;-85
2023/03/16 06:44:01;;;;;;;0.50;0.50;;;;;;;10.12;100.00;98708.38;4993130;28;20137;-85
2023/03/16 06:46:27;;;;;;;0.40;0.40;;;;;;;10.17;100.00;98710.41;4960623;28;20417;-84
2023/03/16 06:48:52;;;;;;;0.43;0.43;;;;;;;10.11;100.00;98706.75;4977382;28;20030;-84
2023/03/16 06:51:18;;;;;;;0.40;0.40;;;;;;;10.08;100.00;98704.50;4992340;28;20499;-84
2023/03/16 06:53:44;;;;;;;0.40;0.40;;;;;;;10.11;100.00;98712.13;4976511;28;20088;-84
2023/03/16 06:56:12;;;;;;;0.40;0.40;;;;;;;10.00;100.00;98689.53;4992481;28;20428;-84
2023/03/16 06:58:41;;;;;;;0.50;0.50;;;;;;;10.02;100.00;98695.47;4961714;28;20038;-85
2023/03/16 07:01:06;;;;;;;0.40;0.40;;;;;;;10.09;100.00;98704.28;4992664;28;20533;-85
2023/03/16 07:03:35;;;;;;;0.60;0.60;;;;;;;10.11;100.00;98707.56;4976488;28;20053;-87
2023/03/16 07:06:04;;;;;;;0.50;0.50;;;;;;;10.17;100.00;98710.41;4976218;28;20117;-87
2023/03/16 07:08:30;;;;;;;0.52;0.52;;;;;;;10.23;100.00;98712.19;4960597;28;20570;-86
2023/03/16 07:10:56;;;;;;;0.40;0.40;;;;;;;10.25;100.00;98705.56;4992607;28;20038;-86
2023/03/16 07:13:22;;;;;;;0.45;0.45;;;;;;;10.20;100.00;98694.66;4976497;28;20030;-84
2023/03/16 07:15:52;;;;;;;0.40;0.40;;;;;;;10.20;100.00;98693.84;4976680;28;20481;-85
2023/03/16 07:18:19;;;;;;;0.40;0.40;;;;;;;10.27;100.00;98710.72;4976575;28;20417;-84
2023/03/16 07:20:44;;;;;;;0.40;0.40;;;;;;;10.31;100.00;98714.63;4960305;28;20038;-86
2023/03/16 07:23:11;;;;;;;0.40;0.40;;;;;;;10.32;100.00;98703.66;4976147;28;20038;-84
2023/03/16 07:25:43;;;;;;;0.40;0.40;;;;;;;10.19;100.00;98676.91;4992670;28;20105;-87
2023/03/16 07:28:10;;;;;;;0.40;0.40;;;;;;;10.27;100.00;98695.44;4976301;28;20026;-86
2023/03/16 07:30:36;;;;;;;0.40;0.40;;;;;;;10.34;100.00;98703.41;4976512;28;20489;-85
2023/03/16 07:33:02;;;;;;;0.40;0.40;;;;;;;10.43;100.00;98712.81;4944643;28;20042;-84
2023/03/16 07:35:28;;;;;;;0.40;0.40;;;;;;;10.51;100.00;98701.78;4960757;28;20038;-85
2023/03/16 07:37:55;;;;;;;0.45;0.45;;;;;;;10.61;100.00;98695.03;4994845;28;20444;-85
2023/03/16 07:40:20;;;;;;;0.40;0.40;;;;;;;10.67;100.00;98713.78;4996148;28;20070;-85
2023/03/16 07:42:46;;;;;;;0.50;0.50;;;;;;;10.72;100.00;98724.66;4980010;28;20034;-84
2023/03/16 07:45:13;;;;;;;0.50;0.50;;;;;;;10.72;100.00;98707.72;4995993;28;20084;-86
2023/03/16 07:47:38;;;;;;;0.40;0.40;;;;;;;10.72;100.00;98705.03;4996466;28;20042;-87
2023/03/16 07:50:05;;;;;;;0.40;0.40;;;;;;;10.72;100.00;98718.47;4997138;28;20465;-85
2023/03/16 07:52:30;;;;;;;0.40;0.40;;;;;;;10.79;100.00;98728.06;4964115;28;20045;-85
2023/03/16 07:54:56;;;;;;;0.50;0.50;;;;;;;10.79;100.00;98716.50;4995608;28;20038;-86
2023/03/16 07:57:22;;;;;;;0.40;0.40;;;;;;;10.87;100.00;98726.94;4996015;28;20026;-86
2023/03/16 07:59:48;;;;;;;0.88;0.88;;;;;;;10.93;100.00;98730.59;4979681;28;20056;-84
2023/03/16 08:02:16;;;;;;;0.43;0.43;;;;;;;10.97;100.00;98710.25;4963393;28;20389;-85
2023/03/16 08:04:45;;;;;;;0.40;0.40;;;;;;;11.16;100.00;98732.53;4949129;28;20060;-84
2023/03/16 08:07:13;;;;;;;0.40;0.40;;;;;;;11.32;100.00;98712.22;4963563;28;20065;-84
2023/03/16 08:09:39;;;;;;;0.50;0.50;;;;;;;11.35;100.00;98731.44;4947823;28;20045;-84
2023/03/16 08:12:06;;;;;;;0.50;0.50;;;;;;;11.51;100.00;98738.03;4979770;28;20129;-86
2023/03/16 08:14:33;;;;;;;0.40;0.40;;;;;;;11.64;100.00;98727.03;4995553;28;20026;-85
2023/03/16 08:17:03;;;;;;;0.40;0.40;;;;;;;11.84;100.00;98734.78;4994850;28;20049;-86
2023/03/16 08:19:29;;;;;;;0.40;0.40;;;;;;;11.56;100.00;98721.97;4963740;28;20070;-85
2023/03/16 08:21:55;;;;;;;0.40;0.40;;;;;;;11.59;100.00;98739.53;4995853;28;20038;-85
2023/03/16 08:24:20;;;;;;;0.50;0.50;;;;;;;11.74;100.00;98731.84;4995294;28;20477;-85
2023/03/16 08:26:46;;;;;;;0.40;0.40;;;;;;;11.87;100.00;98736.22;4995602;28;20362;-84
2023/03/16 08:29:12;;;;;;;0.60;0.60;;;;;;;11.97;100.00;98749.09;4995735;28;20124;-86
2023/03/16 08:31:41;;;;;;;0.40;0.40;;;;;;;12.03;100.00;98751.66;4963654;28;20515;-84
2023/03/16 08:34:09;;;;;;;0.50;0.50;;;;;;;12.04;100.00;98753.31;5004217;28;20030;-83
2023/03/16 08:36:38;;;;;;;0.40;0.40;;;;;;;11.87;100.00;98746.97;5009893;28;20030;-85
2023/03/16 08:39:06;;;;;;;0.40;0.40;;;;;;;11.66;100.00;98751.03;4995362;28;20034;-84
2023/03/16 08:41:33;;;;;;;0.45;0.45;;;;;;;11.45;100.00;98758.59;4979250;28;20035;-85
2023/03/16 08:43:59;;;;;;;0.47;0.47;;;;;;;11.36;100.00;98765.34;4947659;28;20042;-86
2023/03/16 08:46:25;;;;;;;0.40;0.40;;;;;;;11.44;100.00;98754.25;4978597;28;20089;-85
2023/03/16 08:48:51;;;;;;;0.80;0.80;;;;;;;11.50;100.00;98754.41;4978983;28;20124;-87
2023/03/16 08:51:18;;;;;;;0.50;0.50;;;;;;;11.83;100.00;98751.19;4981629;28;20475;-84
2023/03/16 08:53:44;;;;;;;0.40;0.40;;;;;;;11.86;100.00;98748.84;5005248;28;20065;-84
2023/03/16 08:56:13;;;;;;;0.50;0.50;;;;;;;11.99;100.00;98747.00;5000622;28;20045;-86
2023/03/16 08:58:47;;;;;;;0.57;0.57;;;;;;;12.45;100.00;98761.47;4983619;28;20092;-85
2023/03/16 09:01:16;;;;;;;0.40;0.40;;;;;;;12.45;100.00;98756.09;4995981;28;20038;-87
2023/03/16 09:03:44;;;;;;;0.50;0.50;;;;;;;12.48;100.00;98761.00;4962936;28;20046;-86
2023/03/16 09:06:11;;;;;;;0.50;0.50;;;;;;;12.45;100.00;98765.00;4978914;28;20026;-84
2023/03/16 09:08:44;;;;;;;0.47;0.47;;;;;;;12.46;100.00;98766.66;4979649;28;20385;-86
2023/03/16 09:11:18;;;;;;;0.50;0.50;;;;;;;12.30;100.00;98762.81;4993979;28;20030;-86
2023/03/16 09:13:44;;;;;;;0.50;0.50;;;;;;;12.15;100.00;98759.75;4962729;28;20056;-86
2023/03/16 09:16:14;;;;;;;0.40;0.40;;;;;;;12.38;100.00;98774.25;4963166;28;20035;-85
2023/03/16 09:18:42;;;;;;;0.50;0.50;;;;;;;12.60;100.00;98763.69;4962874;28;20022;-84
2023/03/16 09:21:11;;;;;;;0.40;0.40;;;;;;;12.66;100.00;98765.44;4962392;28;20042;-86
2023/03/16 09:23:37;;;;;;;0.40;0.40;;;;;;;12.75;100.00;98764.81;4962594;28;20468;-86
2023/03/16 09:26:06;;;;;;;0.40;0.40;;;;;;;12.88;100.00;98768.28;4946098;28;20034;-85
2023/03/16 09:28:33;;;;;;;0.50;0.50;;;;;;;13.29;100.00;98771.81;4978411;28;20038;-84
2023/03/16 09:31:00;;;;;;;0.50;0.50;;;;;;;13.93;100.00;98772.34;4977499;28;20034;-85
2023/03/16 09:33:27;;;;;;;0.60;0.60;;;;;;;14.77;100.00;98768.69;4977346;28;20382;-79
2023/03/16 09:35:56;;;;;;;0.50;0.50;;;;;;;15.74;100.00;98756.16;4995123;28;20026;-79
2023/03/16 09:38:24;;;;;;;0.70;0.70;;;;;;;16.64;100.00;98758.09;4962165;28;20099;-79
2023/03/16 09:41:15;;;;;;;0.60;0.60;;;;;;;17.58;100.00;98753.50;4962223;28;20034;-80
2023/03/16 09:43:44;;;;;;;0.70;0.70;;;;;;;18.04;100.00;98749.97;4979794;28;20038;-80
2023/03/16 09:46:32;;;;;;;0.50;0.50;;;;;;;17.44;100.00;98758.66;4993931;28;20038;-80
2023/03/16 09:48:58;;;;;;;0.50;0.50;;;;;;;18.96;100.00;98763.34;4977459;28;20412;-79
2023/03/16 09:51:41;;;;;;;0.60;0.60;;;;;;;18.13;100.00;98764.66;4977476;28;20030;-79
2023/03/16 09:54:39;;;;;;;;;;;;;;;19.41;100.00;98764.19;4995072;28;20465;-79
2023/03/16 09:57:14;;;;;;;0.80;0.80;;;;;;;19.57;100.00;98762.19;4950941;28;20011;-81
2023/03/16 09:59:48;;;;;;;0.50;0.50;;;;;;;19.02;100.00;98762.22;4976739;28;20040;-79
2023/03/16 10:02:28;;;;;;;0.50;0.50;;;;;;;17.78;100.00;98758.94;4994896;28;20426;-79
2023/03/16 10:05:00;;;;;;;0.50;0.50;;;;;;;17.20;100.00;98762.94;4993651;28;20493;-79
2023/03/16 10:07:35;;;;;;;0.90;0.90;;;;;;;18.55;100.00;98769.75;4993548;28;20034;-79
2023/03/16 10:10:09;;;;;;;0.50;0.50;;;;;;;18.63;100.00;98763.72;4993230;28;20061;-79
2023/03/16 10:12:42;;;;;;;0.40;0.40;;;;;;;17.20;100.00;98742.03;4994549;28;20465;-79
2023/03/16 10:15:14;;;;;;;0.50;0.50;;;;;;;16.72;100.00;98760.28;4976202;28;20030;-80
2023/03/16 10:18:00;;;;;;;0.60;0.60;;;;;;;16.89;100.00;98752.00;4977274;28;20480;-79
2023/03/16 10:20:32;;;;;;;0.50;0.50;;;;;;;17.28;100.00;98765.13;4994401;28;20497;-79
2023/03/16 10:23:00;;;;;;;0.70;0.70;;;;;;;18.16;100.00;98770.38;4993505;28;20033;-79
2023/03/16 10:25:46;;;;;;;0.93;0.93;;;;;;;21.34;90.80;98765.25;4993024;28;20106;-79
2023/03/16 10:28:23;;;;;;;0.55;0.55;;;;;;;21.89;85.61;98765.53;4992972;28;20110;-80
2023/03/16 10:30:51;;;;;;;0.90;0.90;;;;;;;22.59;82.29;98778.25;4992696;28;20384;-80
2023/03/16 10:33:25;;;;;;;0.45;0.45;;;;;;;21.93;78.64;98764.63;4992900;28;20031;-80
2023/03/16 10:36:04;;;;;;;1.00;1.00;;;;;;;21.74;84.51;98769.31;4976792;28;20037;-80
2023/03/16 10:38:38;;;;;;;1.55;1.20;;;;;;;23.20;75.09;98774.28;4993172;28;20085;-80
2023/03/16 10:41:16;;;;;;;0.85;0.50;;;;;;;20.67;82.08;98773.47;4994217;28;20477;-80
2023/03/16 10:43:46;;;;;;;2.83;1.02;;;;;;;19.77;86.91;98768.31;4994212;28;20045;-78
2023/03/16 10:46:15;;;;;;;1.08;0.98;;;;;;;20.13;85.83;98778.91;4961618;28;20040;-77
2023/03/16 10:48:42;;;;;;;1.75;1.10;;;;;;;19.63;85.94;98775.47;4977180;28;20050;-78
2023/03/16 10:51:14;;;;;;;1.85;0.90;;;;;;;21.93;75.85;98774.75;4977433;28;20045;-77
2023/03/16 10:53:50;;;;;;;0.75;0.75;;;;;;;19.38;84.14;98765.56;4993116;28;20034;-77
2023/03/16 10:56:25;;;;;;;3.13;1.20;;;;;;;18.61;92.22;98784.16;4976589;28;20049;-77
2023/03/16 10:59:32;;;;;;;1.05;0.95;;;;;;;21.30;77.33;98759.56;4993106;28;20098;-78
2023/03/16 11:02:10;;;;;;;1.02;0.80;;;;;;;20.86;79.28;98766.16;4977538;28;20142;-77
2023/03/16 11:04:42;;;;;;;1.20;1.10;;;;;;;21.68;77.04;98762.31;4972487;28;20444;-77
2023/03/16 11:07:16;;;;;;;2.22;1.00;;;;;;;21.18;79.30;98734.59;4992761;28;20526;-77
2023/03/16 11:09:42;;;;;;;2.38;0.93;;;;;;;18.67;86.91;98764.78;4960834;28;20046;-78
2023/03/16 11:12:40;;;;;;;1.63;1.15;;;;;;;17.16;96.80;98748.28;4967477;28;20181;-76
2023/03/16 11:15:12;;;;;;;1.65;0.75;;;;;;;16.67;100.00;98755.69;4997247;28;20105;-80
2023/03/16 11:17:43;;;;;;;0.50;0.50;;;;;;;16.21;100.00;98752.72;4963662;28;20421;-78
2023/03/16 11:20:16;;;;;;;1.27;0.70;;;;;;;16.06;100.00;98763.44;4980153;28;20034;-77
2023/03/16 11:22:47;;;;;;;3.27;1.03;;;;;;;16.29;100.00;98773.09;4964055;28;20027;-79
2023/03/16 11:25:34;;;;;;;0.60;0.60;;;;;;;16.62;100.00;98765.69;4962962;28;20268;-76
2023/03/16 11:28:12;;;;;;;2.83;0.82;;;;;;;16.29;100.00;98764.97;4978469;28;20175;-79
2023/03/16 11:30:53;;;;;;;1.42;0.70;;;;;;;15.95;100.00;98767.97;4977518;28;20042;-76
2023/03/16 11:33:21;;;;;;;1.95;0.75;;;;;;;15.96;100.00;98776.94;4962469;28;20046;-76